Homestead ARB Airport
KHST : now visible

Airfield :











YOU CAN JOIN US ON...

 
LOGIN :

Register | Disclaimer

   EN    FR    IT 

 









Legend :    VFR   Marginal VFR   IFR   Intensive IFR   Very Intensive IFR
Visi :
Ceiling :
>= 8 km
>= 3000ft
5 to 8 km
1000 to 3000 ft
1500m to 5 km
500 to 1000 ft
800 to 1500m
200 to 500 ft
< 800m
< 200 ft
Symbols :   Thunderstorms  Fog  Heavy snow  Heavy precipitations  Wind > 20 kt






- Airport Elevation : 5 ft


KHST - Homestead ARB

CURRENT METAR :
  • 061137Z AUTO 12010G20KT 10SM BKN015 OVC022 28/26 A2995 RMK AO2 RAB10E19DZB19E22 BKN V OVC SLP145

EXPIRED METARs :
  • 061122Z AUTO 11011G16KT 10SM OVC014 28/26 A2995 RMK AO2 RAB10E19DZB19E22 SLP145
  • 061110Z AUTO 11011KT 10SM -RA OVC014 28/26 A2995 RMK AO2 RAB10 SLP145
  • 061056Z AUTO 10010KT 10SM OVC014 28/26 A2995 RMK AO2 RAB18E19DZB19E27RAB27E28 SLP145 P0000 T02800258
  • 061028Z AUTO 11010KT 10SM BKN014 OVC023 28/26 A2994 RMK AO2 RAB18E19DZB19E27RAB27E28 SLP142
  • 061018Z AUTO 10010KT 10SM -RA BKN014 OVC023 28/26 A2994 RMK AO2 RAB18 SLP142
  • 060956Z AUTO 12010KT 10SM BKN014 OVC022 28/26 A2994 RMK AO2 BKN V OVC SLP142 T02800256

TAF TAF KHST
Valid from the 06 at 11:00 until the 07 at 17:00 UTC


061100Z 0611/0717 12009KT 9999 VCSH BKN015 BKN240 QNH2994INS
BECMG 0614/0615 14010G15KT 9999 VCSH BKN030 BKN240 QNH2995INS
BECMG 0617/0618 14012G20KT 8000 -SHRA VCTS SCT015CB BKN025 BKN220 QNH2989INS
BECMG 0701/0702 12006KT 9999 NSW SCT030 BKN150 QNH2990INS TX30/0618Z TN27/0611Z
KZMA FIR / North America



MET'MAP, your aeronautical weather chart ! - Copyright ORBIFLY December 2007 - Disclaimer

ORBIFLY MET'MAP TEAM :

Programming & Development : Alexandra Zaïnal
Concept & original design : Baudouin d'Aumeries
Assistance for programming : Marc-Olivier Méhu
Technical & hardware support : Manuel Goepfert

Contact : metmap@orbifly.com




SOURCES & CREDITS :

   NOAA       Earth
Advisory